Time;durP1;ratioP1;P1;durP2;ratioP2;P2;SDS_P1;SDS_P2;PMS_P1;PMS_P2;Temp;Humidity;BMP_temperature;BMP_pressure;BME280_temperature;BME280_humidity;BME280_pressure;Samples;Min_cycle;Max_cycle;Signal;HPM_P1;HPM_P2
2022/12/15 00:39:21;;;;;;;5.72;4.43;;;18.40;27.10;;;;;;5050102;28;20037;-57
2022/12/15 00:41:47;;;;;;;7.53;4.93;;;18.50;27.10;;;;;;5051260;28;20463;-56
2022/12/15 00:44:14;;;;;;;6.18;4.70;;;18.40;27.10;;;;;;5046788;28;20043;-53
2022/12/15 00:46:53;;;;;;;6.85;4.35;;;18.40;27.10;;;;;;5052418;28;20389;-57
2022/12/15 01:22:30;;;;;;;5.97;4.47;;;18.30;27.00;;;;;;5050297;28;20372;-55
2022/12/15 01:24:56;;;;;;;7.18;4.88;;;18.30;27.00;;;;;;5050792;28;20032;-57
2022/12/15 01:27:23;;;;;;;5.82;4.65;;;18.30;27.00;;;;;;5050971;28;20040;-56
2022/12/15 01:29:49;;;;;;;5.32;4.10;;;18.20;26.90;;;;;;5051470;28;20025;-56
2022/12/15 01:32:15;;;;;;;7.35;4.72;;;18.20;26.90;;;;;;5049680;28;20448;-53
2022/12/15 01:34:41;;;;;;;7.22;5.18;;;18.30;26.90;;;;;;5051869;28;20091;-52
2022/12/15 01:37:06;;;;;;;6.22;5.00;;;18.20;26.90;;;;;;5030982;28;20056;-56
2022/12/15 01:42:17;;;;;;;6.40;4.75;;;18.20;26.90;;;;;;5049345;28;20055;-56
2022/12/15 01:44:46;;;;;;;6.57;4.10;;;18.30;26.90;;;;;;5048363;28;20393;-58
2022/12/15 01:47:14;;;;;;;7.45;5.22;;;18.20;26.90;;;;;;5050286;28;20037;-58
2022/12/15 01:49:42;;;;;;;6.53;4.55;;;18.20;26.90;;;;;;5053546;28;20025;-55
2022/12/15 01:52:09;;;;;;;7.40;5.07;;;18.20;26.90;;;;;;5054754;28;20102;-57
2022/12/15 01:54:45;;;;;;;10.18;5.38;;;18.20;26.90;;;;;;5055199;28;20021;-55
2022/12/15 01:57:17;;;;;;;6.97;4.93;;;18.20;26.90;;;;;;5052549;28;20440;-56
2022/12/15 01:59:53;;;;;;;6.22;4.22;;;18.20;26.90;;;;;;5054109;28;20574;-55
2022/12/15 02:02:23;;;;;;;6.68;4.30;;;18.20;26.90;;;;;;5037263;28;20029;-55
2022/12/15 02:04:51;;;;;;;6.63;4.68;;;18.20;26.90;;;;;;5054750;28;20029;-58
2022/12/15 02:07:18;;;;;;;6.43;4.70;;;18.20;26.80;;;;;;5054293;28;20021;-56
2022/12/15 02:09:46;;;;;;;6.82;5.03;;;18.20;26.80;;;;;;5053072;28;20029;-55
2022/12/15 02:12:57;;;;;;;6.38;4.70;;;18.10;26.80;;;;;;5051007;28;20360;-56
2022/12/15 02:15:31;;;;;;;7.63;4.88;;;18.10;26.80;;;;;;5051064;28;20056;-56
2022/12/15 02:18:09;;;;;;;;;;;18.10;26.90;;;;;;5033465;28;20021;-59
2022/12/15 02:20:46;;;;;;;6.43;4.55;;;18.10;27.00;;;;;;5054626;28;19995;-57
2022/12/15 02:23:17;;;;;;;6.45;4.63;;;18.10;27.10;;;;;;5035901;28;20166;-59
2022/12/15 02:26:17;;;;;;;6.40;5.00;;;18.10;27.10;;;;;;5054454;28;20036;-56
2022/12/15 02:29:08;;;;;;;7.95;4.60;;;18.10;27.10;;;;;;5033369;28;20033;-55
2022/12/15 02:31:50;;;;;;;6.55;4.78;;;18.10;27.10;;;;;;5035243;28;20029;-58
2022/12/15 02:34:33;;;;;;;6.20;4.43;;;18.10;27.10;;;;;;5034630;28;20033;-54
2022/12/15 02:37:11;;;;;;;7.25;4.90;;;18.10;27.10;;;;;;5055478;28;20025;-56
2022/12/15 02:39:36;;;;;;;5.97;4.32;;;18.00;27.00;;;;;;5052193;28;20021;-57
2022/12/15 02:42:02;;;;;;;5.72;4.20;;;18.10;27.00;;;;;;5052867;28;20052;-53
2022/12/15 02:44:45;;;;;;;6.32;4.53;;;18.00;27.00;;;;;;5053144;28;20108;-55
2022/12/15 02:47:32;;;;;;;5.63;4.40;;;18.00;27.00;;;;;;5052529;28;20452;-59
2022/12/15 02:50:18;;;;;;;5.85;4.28;;;18.00;27.00;;;;;;5053773;28;20120;-58
2022/12/15 02:52:56;;;;;;;7.07;4.53;;;18.00;26.90;;;;;;5053312;28;20028;-58
2022/12/15 02:55:55;;;;;;;6.40;4.53;;;18.00;26.90;;;;;;5053503;28;20044;-57
2022/12/15 02:58:36;;;;;;;6.57;4.22;;;18.00;26.90;;;;;;5053281;28;20041;-58
2022/12/15 03:01:10;;;;;;;6.47;4.47;;;18.00;26.90;;;;;;5051929;28;20029;-57
2022/12/15 03:03:37;;;;;;;6.70;4.35;;;18.00;26.90;;;;;;5052729;28;20452;-57
2022/12/15 03:06:04;;;;;;;6.78;4.78;;;18.00;26.90;;;;;;5053980;28;20056;-54
2022/12/15 03:08:30;;;;;;;6.03;4.60;;;18.00;26.90;;;;;;5053715;28;20020;-57
2022/12/15 03:10:57;;;;;;;7.25;4.00;;;18.00;26.90;;;;;;5033594;28;20317;-56
2022/12/15 03:13:24;;;;;;;6.97;4.70;;;18.00;26.90;;;;;;5054309;28;20441;-53
2022/12/15 03:15:51;;;;;;;5.32;4.18;;;17.90;26.90;;;;;;5053133;28;20364;-56
2022/12/15 03:18:17;;;;;;;6.28;4.60;;;17.90;26.90;;;;;;5052954;28;20087;-56
2022/12/15 03:20:43;;;;;;;7.80;4.40;;;17.90;26.90;;;;;;5053368;28;20435;-57
2022/12/15 03:23:08;;;;;;;5.68;4.25;;;17.90;26.90;;;;;;5036376;28;20060;-55
2022/12/15 03:25:34;;;;;;;6.03;4.13;;;17.90;27.30;;;;;;5053392;28;20029;-57
2022/12/15 03:28:00;;;;;;;5.95;4.05;;;17.90;26.90;;;;;;5053680;28;20028;-56
2022/12/15 03:30:26;;;;;;;5.50;4.05;;;17.90;26.90;;;;;;5052653;28;20029;-57
2022/12/15 03:32:52;;;;;;;6.07;4.30;;;17.90;26.90;;;;;;5051667;28;20119;-59
2022/12/15 03:35:17;;;;;;;6.72;4.60;;;17.90;26.80;;;;;;5053246;28;20021;-57
2022/12/15 03:37:43;;;;;;;5.15;4.13;;;17.90;26.90;;;;;;5052749;28;20040;-55
2022/12/15 03:40:10;;;;;;;6.43;4.43;;;17.90;26.90;;;;;;5054084;28;20037;-53
2022/12/15 03:42:47;;;;;;;5.30;4.20;;;17.90;26.90;;;;;;5049720;28;20534;-58
2022/12/15 03:45:22;;;;;;;6.05;4.22;;;17.90;27.40;;;;;;5051302;28;20029;-52
2022/12/15 03:47:49;;;;;;;5.68;3.97;;;17.90;26.90;;;;;;5032130;28;20047;-55
2022/12/15 03:50:21;;;;;;;6.47;4.53;;;17.80;26.80;;;;;;5053339;28;20367;-55
2022/12/15 03:52:52;;;;;;;6.43;4.28;;;17.80;27.30;;;;;;5052861;28;20044;-56
2022/12/15 03:55:18;;;;;;;6.82;4.25;;;17.80;26.80;;;;;;5054136;28;20032;-57
2022/12/15 03:57:44;;;;;;;4.95;3.90;;;17.80;26.80;;;;;;5051502;28;20029;-56
2022/12/15 04:00:15;;;;;;;6.30;4.03;;;17.80;26.80;;;;;;5052705;28;20371;-56
2022/12/15 04:02:44;;;;;;;4.97;3.92;;;17.80;26.80;;;;;;5051544;28;20036;-54
2022/12/15 04:05:33;;;;;;;6.15;4.40;;;17.80;26.80;;;;;;5050839;28;20037;-56
2022/12/15 04:08:00;;;;;;;5.88;4.47;;;17.80;26.80;;;;;;5037227;28;20049;-52
2022/12/15 04:10:29;;;;;;;5.20;4.00;;;17.80;26.80;;;;;;5053524;28;20108;-57
2022/12/15 04:12:58;;;;;;;5.50;3.88;;;17.80;26.80;;;;;;5052249;28;20036;-56
2022/12/15 04:15:25;;;;;;;5.63;4.07;;;17.80;26.80;;;;;;5015526;28;20069;-55
2022/12/15 04:17:51;;;;;;;5.95;4.32;;;17.80;26.80;;;;;;5031556;28;20041;-57
2022/12/15 04:20:17;;;;;;;5.25;3.90;;;17.80;26.80;;;;;;5032457;28;20084;-58
2022/12/15 04:22:46;;;;;;;5.75;3.97;;;17.80;26.80;;;;;;5012143;28;20030;-56
2022/12/15 05:31:53;;;;;;;5.82;4.20;;;17.50;26.70;;;;;;5031142;28;20021;-55
2022/12/15 05:34:25;;;;;;;6.40;4.10;;;17.50;26.70;;;;;;5031240;28;20037;-57
2022/12/15 05:36:55;;;;;;;5.78;3.85;;;17.50;26.70;;;;;;5028223;28;20021;-56
2022/12/15 05:39:22;;;;;;;5.32;3.90;;;17.50;26.70;;;;;;5029191;28;20025;-55
2022/12/15 05:41:49;;;;;;;5.70;4.50;;;17.50;26.70;;;;;;5030843;28;20148;-58
2022/12/15 05:44:16;;;;;;;5.53;3.92;;;17.50;26.70;;;;;;5032545;28;20029;-56
2022/12/15 05:46:42;;;;;;;5.15;3.90;;;17.50;26.70;;;;;;5031050;28;20037;-55
2022/12/15 05:49:12;;;;;;;5.03;4.32;;;17.50;26.70;;;;;;5030603;28;20160;-57
2022/12/15 05:51:39;;;;;;;5.90;4.20;;;17.50;26.70;;;;;;5030246;28;20117;-54
2022/12/15 05:54:06;;;;;;;6.38;4.68;;;17.50;26.80;;;;;;5030879;28;20025;-58
2022/12/15 05:56:32;;;;;;;6.55;4.68;;;17.50;26.70;;;;;;5031826;28;20256;-56
2022/12/15 05:58:57;;;;;;;5.80;4.30;;;17.50;26.70;;;;;;5031244;28;20113;-53
2022/12/15 06:01:25;;;;;;;6.47;4.47;;;17.50;26.70;;;;;;5030032;28;20112;-58
2022/12/15 06:03:51;;;;;;;6.47;4.80;;;17.50;26.70;;;;;;5028007;28;20365;-56
2022/12/15 06:06:17;;;;;;;6.80;4.70;;;17.50;26.70;;;;;;5031547;28;20032;-57
2022/12/15 06:08:43;;;;;;;7.78;4.70;;;17.50;26.70;;;;;;5029919;28;20044;-54
2022/12/15 06:11:11;;;;;;;6.28;4.15;;;17.50;26.70;;;;;;5031166;28;20033;-56
2022/12/15 06:13:37;;;;;;;6.63;4.53;;;17.50;26.60;;;;;;5032237;28;20044;-56
2022/12/15 06:16:21;;;;;;;7.28;4.38;;;17.50;26.60;;;;;;5051007;28;20029;-56
2022/12/15 06:18:50;;;;;;;5.85;4.30;;;17.50;26.60;;;;;;5048225;28;20033;-55
2022/12/15 06:21:18;;;;;;;6.70;4.50;;;17.50;26.60;;;;;;5050730;28;20057;-56
2022/12/15 06:23:45;;;;;;;8.07;4.80;;;17.50;26.60;;;;;;5048869;28;20456;-58
2022/12/15 06:26:21;;;;;;;5.60;4.07;;;17.50;26.60;;;;;;5017272;28;20036;-57
2022/12/15 06:28:49;;;;;;;6.32;4.57;;;17.50;26.60;;;;;;5048538;28;20033;-55
2022/12/15 06:31:17;;;;;;;6.38;4.57;;;17.50;26.60;;;;;;5050880;28;20036;-57
2022/12/15 06:33:43;;;;;;;6.45;4.53;;;17.50;26.60;;;;;;5048531;28;20041;-56
2022/12/15 06:36:12;;;;;;;6.72;4.70;;;17.50;26.60;;;;;;5054436;28;20032;-57
2022/12/15 06:38:38;;;;;;;6.88;4.45;;;17.50;26.60;;;;;;5053766;28;20049;-59
2022/12/15 06:41:06;;;;;;;6.57;4.43;;;17.50;26.60;;;;;;5055797;28;20102;-58
2022/12/15 06:43:33;;;;;;;7.10;5.10;;;17.50;26.60;;;;;;5036317;28;20049;-58
2022/12/15 06:46:00;;;;;;;6.68;4.28;;;17.50;26.60;;;;;;5055644;28;20102;-55
2022/12/15 06:48:27;;;;;;;6.57;4.90;;;17.50;26.70;;;;;;5056797;28;20044;-56
2022/12/15 06:50:53;;;;;;;6.68;4.90;;;17.50;26.70;;;;;;5056770;28;20072;-57
2022/12/15 06:53:21;;;;;;;6.65;5.00;;;17.50;26.70;;;;;;5057136;28;20447;-53
2022/12/15 06:55:48;;;;;;;6.25;4.55;;;17.50;26.70;;;;;;5045744;28;20039;-54
2022/12/15 06:58:15;;;;;;;6.68;4.57;;;17.50;26.70;;;;;;5064357;28;20459;-56
2022/12/15 07:00:43;;;;;;;6.07;4.20;;;17.50;26.80;;;;;;5057311;28;20048;-59
2022/12/15 07:03:16;;;;;;;6.63;4.70;;;17.50;26.80;;;;;;5057872;28;20128;-58
2022/12/15 07:05:43;;;;;;;7.28;4.03;;;17.40;26.80;;;;;;5057823;28;20059;-58
2022/12/15 07:08:10;;;;;;;8.00;4.53;;;17.50;27.00;;;;;;5052168;28;20373;-59
2022/12/15 07:10:41;;;;;;;5.97;3.87;;;17.40;27.10;;;;;;5051361;28;20387;-59
2022/12/15 07:13:11;;;;;;;4.47;3.67;;;17.40;27.20;;;;;;5036323;28;20067;-56
2022/12/15 07:15:37;;;;;;;5.03;3.77;;;17.50;27.30;;;;;;5048315;28;20067;-58
2022/12/15 07:18:04;;;;;;;5.47;3.45;;;17.50;27.40;;;;;;5052394;28;20040;-54
2022/12/15 07:20:30;;;;;;;6.60;4.00;;;17.50;27.40;;;;;;5052374;28;20040;-53
2022/12/15 07:22:56;;;;;;;6.35;3.97;;;17.60;27.50;;;;;;5038852;28;20029;-58
2022/12/15 07:25:22;;;;;;;5.43;3.95;;;17.60;27.50;;;;;;5056296;28;20352;-57
2022/12/15 07:27:48;;;;;;;5.35;3.83;;;17.60;28.00;;;;;;5026300;28;20057;-57
2022/12/15 07:30:16;;;;;;;5.88;3.90;;;17.70;27.50;;;;;;5043718;28;20078;-57
2022/12/15 07:32:43;;;;;;;5.45;3.90;;;17.80;27.50;;;;;;5004291;28;20044;-61
2022/12/15 07:35:09;;;;;;;5.57;3.77;;;17.80;27.50;;;;;;5048701;28;20024;-59
2022/12/15 07:37:35;;;;;;;5.07;3.90;;;17.90;27.50;;;;;;5052081;28;20047;-58
2022/12/15 07:40:02;;;;;;;6.13;3.92;;;18.00;27.50;;;;;;5056364;28;20028;-58
2022/12/15 07:42:29;;;;;;;4.95;3.85;;;18.00;27.40;;;;;;5056454;28;20090;-59
2022/12/15 07:44:55;;;;;;;4.82;3.90;;;18.10;27.40;;;;;;5055053;28;20470;-57
2022/12/15 07:47:20;;;;;;;7.97;4.40;;;18.20;27.30;;;;;;5056306;28;20099;-58
2022/12/15 07:49:46;;;;;;;5.97;3.95;;;18.20;27.20;;;;;;5056060;28;20025;-57
2022/12/15 07:52:14;;;;;;;5.80;4.10;;;18.30;27.10;;;;;;5055860;28;20043;-59
2022/12/15 07:54:40;;;;;;;6.38;4.55;;;18.40;27.00;;;;;;5052463;28;20036;-57
2022/12/15 07:57:06;;;;;;;6.00;4.13;;;18.40;26.90;;;;;;5054881;28;20352;-60
2022/12/15 07:59:35;;;;;;;6.30;4.72;;;18.50;26.90;;;;;;5055569;28;20024;-55
2022/12/15 08:02:05;;;;;;;6.25;4.32;;;18.60;26.80;;;;;;5055490;28;20035;-59
2022/12/15 08:04:31;;;;;;;6.88;4.60;;;18.70;26.80;;;;;;5021752;28;20032;-58
2022/12/15 08:06:57;;;;;;;5.63;4.55;;;18.70;26.70;;;;;;5054601;28;20035;-58
2022/12/15 08:09:23;;;;;;;6.72;4.65;;;18.80;26.60;;;;;;5036228;28;20068;-59
2022/12/15 08:11:50;;;;;;;6.15;4.40;;;18.90;26.60;;;;;;5020757;28;20025;-58
2022/12/15 08:14:16;;;;;;;6.72;4.28;;;18.90;26.50;;;;;;5037653;28;20075;-60
2022/12/15 08:16:44;;;;;;;6.50;4.50;;;19.10;26.60;;;;;;5055558;28;20028;-57
2022/12/15 08:19:14;;;;;;;6.10;4.30;;;19.10;26.50;;;;;;5038032;28;20025;-58
2022/12/15 08:21:42;;;;;;;6.45;4.82;;;19.20;27.00;;;;;;5050599;28;20037;-55
2022/12/15 08:24:08;;;;;;;6.82;4.88;;;19.20;26.40;;;;;;5055720;28;20033;-60
2022/12/15 08:26:36;;;;;;;7.03;4.78;;;19.30;26.40;;;;;;5055430;28;20047;-58
2022/12/15 08:29:07;;;;;;;7.18;4.72;;;19.30;26.30;;;;;;5055485;28;20115;-56
2022/12/15 08:31:33;;;;;;;7.00;4.63;;;19.40;26.20;;;;;;5026305;28;20095;-59
2022/12/15 08:34:03;;;;;;;6.70;5.18;;;19.40;26.20;;;;;;5042207;28;20112;-59
2022/12/15 08:36:29;;;;;;;6.93;4.88;;;19.50;26.20;;;;;;5053397;28;20032;-60
2022/12/15 08:38:57;;;;;;;6.72;4.85;;;19.50;26.10;;;;;;5055617;28;20028;-59
2022/12/15 08:41:25;;;;;;;7.45;4.97;;;19.60;26.10;;;;;;5037416;28;20122;-59
2022/12/15 08:43:53;;;;;;;7.72;5.45;;;19.70;26.10;;;;;;5055314;28;20055;-58
2022/12/15 08:46:27;;;;;;;6.82;5.05;;;19.70;26.00;;;;;;5054276;28;20033;-58
2022/12/15 08:48:53;;;;;;;6.75;4.97;;;19.70;26.50;;;;;;5053266;28;20130;-58
2022/12/15 08:51:21;;;;;;;6.95;5.00;;;19.80;26.00;;;;;;5055105;28;20051;-61
2022/12/15 08:53:47;;;;;;;6.60;4.78;;;19.80;25.90;;;;;;5053966;28;20479;-57
2022/12/15 08:56:16;;;;;;;6.78;4.78;;;19.90;25.90;;;;;;5054255;28;20025;-59
2022/12/15 08:58:42;;;;;;;7.25;4.82;;;19.90;25.90;;;;;;5037206;28;20033;-59
2022/12/15 09:01:11;;;;;;;7.10;4.85;;;20.00;25.90;;;;;;5036989;28;20437;-59
2022/12/15 09:03:37;;;;;;;6.95;5.22;;;20.00;25.80;;;;;;5054708;28;20464;-56
2022/12/15 09:06:05;;;;;;;6.75;5.18;;;20.10;25.80;;;;;;5055470;28;20056;-61
2022/12/15 09:08:32;;;;;;;7.22;5.55;;;20.10;25.70;;;;;;5055323;28;20051;-58
2022/12/15 09:10:58;;;;;;;6.70;5.00;;;20.20;25.80;;;;;;5035144;28;20059;-58
2022/12/15 09:13:25;;;;;;;6.70;4.93;;;20.20;25.80;;;;;;5053609;28;20044;-58
2022/12/15 09:16:17;;;;;;;6.82;4.88;;;20.20;25.70;;;;;;5055407;28;20036;-60
2022/12/15 09:18:46;;;;;;;6.28;4.60;;;20.30;25.70;;;;;;5042048;28;20029;-59
2022/12/15 09:21:13;;;;;;;6.68;4.72;;;20.30;25.70;;;;;;5026638;28;20033;-60
2022/12/15 09:23:40;;;;;;;7.55;5.05;;;20.30;25.70;;;;;;5036692;28;20112;-61
2022/12/15 09:26:10;;;;;;;6.53;4.50;;;20.30;25.70;;;;;;5020783;28;20110;-59
2022/12/15 09:28:37;;;;;;;5.82;4.32;;;20.30;25.80;;;;;;5037128;28;20025;-60
2022/12/15 09:31:10;;;;;;;6.40;4.85;;;20.40;25.90;;;;;;5054760;28;20032;-60
2022/12/15 09:33:38;;;;;;;9.13;5.03;;;20.40;25.90;;;;;;5046398;28;20044;-62
2022/12/15 09:36:04;;;;;;;8.18;4.45;;;20.50;25.90;;;;;;5054859;28;20089;-61
2022/12/15 09:38:32;;;;;;;7.15;4.93;;;20.50;25.90;;;;;;5037013;28;20368;-61
2022/12/15 09:41:26;;;;;;;6.32;4.85;;;20.40;25.90;;;;;;5051203;28;20044;-60
2022/12/15 09:44:02;;;;;;;7.18;4.95;;;20.50;25.90;;;;;;5036224;28;20072;-60
2022/12/15 09:46:54;;;;;;;6.15;4.90;;;20.50;25.80;;;;;;5020758;28;20434;-59
2022/12/15 09:49:26;;;;;;;7.10;5.03;;;20.50;25.80;;;;;;5036952;28;20029;-61
2022/12/15 09:52:13;;;;;;;5.57;4.57;;;20.50;25.80;;;;;;5053662;28;20463;-59
2022/12/15 09:54:41;;;;;;;6.50;5.00;;;20.60;25.80;;;;;;5054230;28;20044;-61
2022/12/15 09:57:24;;;;;;;6.13;4.72;;;20.50;25.80;;;;;;5055339;28;20098;-62
2022/12/15 10:00:20;;;;;;;9.30;5.03;;;20.60;25.80;;;;;;5054537;28;20024;-61
2022/12/15 10:02:51;;;;;;;6.70;5.38;;;20.60;25.80;;;;;;5028116;28;20047;-61
2022/12/15 10:05:39;;;;;;;6.35;4.70;;;20.50;25.80;;;;;;5054055;28;20098;-60
2022/12/15 10:08:05;;;;;;;5.88;4.80;;;20.60;25.80;;;;;;5054910;28;20527;-59
2022/12/15 10:10:46;;;;;;;6.47;4.82;;;20.60;25.80;;;;;;5040547;28;20029;-60
2022/12/15 10:13:29;;;;;;;6.82;5.30;;;20.60;25.90;;;;;;5058249;28;20025;-62
2022/12/15 10:16:04;;;;;;;6.18;5.25;;;20.50;25.80;;;;;;5057767;28;20048;-60
2022/12/15 10:19:05;;;;;;;;;;;20.50;25.90;;;;;;5023210;28;20086;-59
2022/12/15 10:21:32;;;;;;;7.10;5.10;;;20.50;25.90;;;;;;4992914;28;19964;-61
2022/12/15 10:24:20;;;;;;;6.60;5.15;;;20.50;25.90;;;;;;5045349;28;20132;-62
2022/12/15 10:27:04;;;;;;;7.32;5.65;;;20.50;25.90;;;;;;5055862;28;20061;-59
2022/12/15 10:29:38;;;;;;;6.75;5.18;;;20.50;25.90;;;;;;5056452;28;20052;-59
2022/12/15 10:32:15;;;;;;;8.35;5.45;;;20.40;25.90;;;;;;5040118;28;20028;-61
2022/12/15 10:34:42;;;;;;;7.18;5.50;;;20.40;25.90;;;;;;5057430;28;20029;-57
2022/12/15 10:37:15;;;;;;;8.80;5.78;;;20.40;26.00;;;;;;5023256;28;20075;-59
2022/12/15 10:39:43;;;;;;;8.13;6.15;;;20.40;26.50;;;;;;5052244;28;20017;-61
2022/12/15 10:42:28;;;;;;;8.95;5.82;;;20.30;25.90;;;;;;5053237;28;20039;-60
2022/12/15 10:44:56;;;;;;;7.82;5.93;;;20.40;26.00;;;;;;5053404;28;20032;-58
2022/12/15 10:47:28;;;;;;;8.88;5.53;;;20.30;25.90;;;;;;5057296;28;20036;-61
2022/12/15 10:50:14;;;;;;;8.05;5.80;;;20.30;25.90;;;;;;5057079;28;20424;-58
2022/12/15 10:52:40;;;;;;;8.50;6.10;;;20.30;25.90;;;;;;5051197;28;20025;-60
2022/12/15 10:55:28;;;;;;;8.40;5.90;;;20.30;26.00;;;;;;5056555;28;20114;-59
2022/12/15 10:57:59;;;;;;;8.40;6.28;;;20.30;26.00;;;;;;5057869;28;20033;-59
2022/12/15 11:00:31;;;;;;;9.45;5.75;;;20.30;26.00;;;;;;5039459;28;20044;-60
2022/12/15 11:02:58;;;;;;;7.88;5.90;;;20.30;26.20;;;;;;5019920;28;20025;-58
2022/12/15 11:05:25;;;;;;;6.35;5.07;;;20.20;26.50;;;;;;5021575;28;20033;-57
2022/12/15 11:08:12;;;;;;;8.02;5.45;;;20.20;26.80;;;;;;5012098;28;20035;-58
2022/12/15 11:13:36;;;;;;;7.53;5.43;;;20.20;27.10;;;;;;5035111;28;20457;-58
2022/12/15 11:16:17;;;;;;;6.88;4.95;;;20.20;27.20;;;;;;5051922;28;20349;-55
2022/12/15 11:18:46;;;;;;;8.57;5.25;;;20.20;27.20;;;;;;5061516;28;20360;-54
2022/12/15 11:21:18;;;;;;;6.75;5.25;;;20.20;27.10;;;;;;5050832;28;20094;-55
2022/12/15 11:24:28;;;;;;;7.47;5.05;;;20.20;27.10;;;;;;5052893;28;20484;-54
2022/12/15 11:26:55;;;;;;;8.77;5.38;;;20.20;27.00;;;;;;4979251;28;20026;-51
2022/12/15 11:29:33;;;;;;;9.93;5.55;;;20.20;27.00;;;;;;4975227;28;20057;-60
2022/12/15 11:31:59;;;;;;;5.80;5.00;;;20.20;27.00;;;;;;5026578;28;20037;-57
2022/12/15 11:34:40;;;;;;;6.82;5.30;;;20.10;26.90;;;;;;5037191;28;20464;-61
2022/12/15 11:37:19;;;;;;;7.13;5.35;;;20.10;27.00;;;;;;5054448;28;20028;-60
2022/12/15 11:40:14;;;;;;;9.10;5.55;;;20.10;27.30;;;;;;5056990;28;20112;-63
2022/12/15 11:43:05;;;;;;;9.10;5.97;;;20.20;27.60;;;;;;5052666;28;20029;-64
2022/12/15 11:45:59;;;;;;;12.45;8.38;;;20.20;27.80;;;;;;5045234;28;20039;-58
2022/12/15 11:49:17;;;;;;;15.90;11.50;;;20.20;28.10;;;;;;5036057;28;20116;-60
2022/12/15 11:52:12;;;;;;;17.80;11.90;;;20.30;28.20;;;;;;4948591;29;20070;-61
2022/12/15 11:55:02;;;;;;;18.73;13.02;;;20.40;28.30;;;;;;5045865;28;20025;-61
2022/12/15 11:57:48;;;;;;;21.52;14.90;;;20.50;28.40;;;;;;5027829;28;20030;-60
2022/12/15 12:00:20;;;;;;;22.90;16.20;;;20.60;28.40;;;;;;5023819;28;20040;-61
2022/12/15 12:03:27;;;;;;;24.65;16.08;;;20.70;28.50;;;;;;5023175;28;20029;-59
2022/12/15 12:06:27;;;;;;;24.92;17.58;;;20.80;28.60;;;;;;5021095;28;20040;-60
2022/12/15 12:09:20;;;;;;;27.58;19.20;;;20.90;28.80;;;;;;5034390;28;20028;-61
2022/12/15 12:11:54;;;;;;;31.00;20.77;;;21.00;28.90;;;;;;5009540;28;20411;-63
2022/12/15 12:14:35;;;;;;;31.02;21.02;;;21.10;28.90;;;;;;5021943;28;20088;-58
2022/12/15 12:17:28;;;;;;;33.22;23.45;;;21.20;28.90;;;;;;5023343;28;20045;-62
2022/12/15 12:20:00;;;;;;;35.25;24.05;;;21.30;29.00;;;;;;5008143;28;20029;-61
2022/12/15 12:22:39;;;;;;;41.55;28.08;;;21.30;28.90;;;;;;5026343;28;20037;-64
2022/12/15 12:25:12;;;;;;;43.30;28.27;;;21.40;28.90;;;;;;5028440;28;20047;-61
2022/12/15 12:28:19;;;;;;;41.40;29.23;;;21.50;28.90;;;;;;5028807;28;20164;-62
2022/12/15 12:30:48;;;;;;;48.15;31.00;;;21.60;28.80;;;;;;4984439;28;20053;-58
2022/12/15 12:33:32;;;;;;;46.88;31.85;;;21.60;28.80;;;;;;5029296;28;20083;-59
2022/12/15 12:36:11;;;;;;;46.75;32.58;;;21.70;28.80;;;;;;5010772;28;20026;-60
2022/12/15 12:38:45;;;;;;;50.15;34.33;;;21.70;28.70;;;;;;5025742;28;20038;-57
2022/12/15 12:41:22;;;;;;;52.15;35.50;;;21.70;28.70;;;;;;5026543;28;20102;-61
2022/12/15 12:43:54;;;;;;;52.90;37.03;;;21.80;28.70;;;;;;5026573;28;20048;-59
2022/12/15 12:46:31;;;;;;;52.78;36.33;;;21.70;28.70;;;;;;5025921;28;20048;-57
2022/12/15 12:49:25;;;;;;;47.33;32.83;;;21.80;28.70;;;;;;5027965;28;20453;-58
2022/12/15 12:51:54;;;;;;;42.33;27.85;;;21.80;28.50;;;;;;5034064;28;20029;-58
2022/12/15 12:54:34;;;;;;;35.92;26.02;;;21.80;28.20;;;;;;5035383;28;20048;-56
2022/12/15 12:57:10;;;;;;;35.90;25.23;;;21.80;27.90;;;;;;5035442;28;20022;-54
2022/12/15 12:59:42;;;;;;;34.05;23.35;;;21.80;27.80;;;;;;5035291;28;20442;-56
2022/12/15 13:02:20;;;;;;;33.63;23.52;;;21.80;27.70;;;;;;5035377;28;20030;-56
2022/12/15 13:05:26;;;;;;;35.67;24.05;;;21.80;27.60;;;;;;5034297;28;20084;-57
2022/12/15 13:08:04;;;;;;;30.55;22.05;;;21.70;27.50;;;;;;5029054;28;20038;-56
2022/12/15 13:10:32;;;;;;;33.80;23.50;;;21.80;27.50;;;;;;5015349;28;20037;-55
2022/12/15 13:13:33;;;;;;;32.83;23.33;;;21.70;27.40;;;;;;5013931;28;20057;-57
2022/12/15 13:16:17;;;;;;;32.65;23.05;;;21.70;27.40;;;;;;5014767;28;20037;-56
2022/12/15 13:19:02;;;;;;;33.63;23.80;;;21.70;27.40;;;;;;5015772;28;20072;-59
2022/12/15 13:21:43;;;;;;;32.42;23.63;;;21.60;27.30;;;;;;5015398;28;20049;-59
2022/12/15 13:24:36;;;;;;;33.70;22.75;;;21.60;27.30;;;;;;5015035;28;20038;-58
2022/12/15 13:27:08;;;;;;;34.42;22.85;;;21.60;27.30;;;;;;5015298;28;20426;-59
2022/12/15 13:29:52;;;;;;;35.50;23.52;;;21.60;27.30;;;;;;5015395;28;20337;-57
2022/12/15 13:32:33;;;;;;;33.17;23.67;;;21.50;27.20;;;;;;5018450;28;20469;-57
2022/12/15 13:35:28;;;;;;;34.60;24.27;;;21.50;27.20;;;;;;5033385;28;20022;-57
2022/12/15 13:38:01;;;;;;;34.25;24.42;;;21.50;27.20;;;;;;5034728;28;20116;-56
2022/12/15 13:40:33;;;;;;;36.30;25.65;;;21.50;27.20;;;;;;5030109;28;20025;-54
2022/12/15 13:42:59;;;;;;;39.95;27.17;;;21.40;27.20;;;;;;5031099;28;20056;-60
2022/12/15 13:45:36;;;;;;;51.92;35.00;;;21.40;27.20;;;;;;5036951;28;20365;-58
2022/12/15 13:48:16;;;;;;;55.85;39.63;;;21.40;27.50;;;;;;5034817;28;20029;-60
2022/12/15 13:51:16;;;;;;;66.00;44.22;;;21.40;27.80;;;;;;5020943;28;20037;-58
2022/12/15 13:53:53;;;;;;;66.15;46.88;;;21.40;28.10;;;;;;5035690;28;20114;-64
2022/12/15 13:56:47;;;;;;;68.03;47.88;;;21.40;28.40;;;;;;5032782;28;20449;-61
2022/12/15 13:59:26;;;;;;;71.00;49.22;;;21.40;28.60;;;;;;5034615;28;20041;-59
2022/12/15 14:01:52;;;;;;;76.90;51.03;;;21.40;28.60;;;;;;5034680;28;20099;-57
2022/12/15 14:04:20;;;;;;;80.78;56.53;;;21.40;28.70;;;;;;5032013;28;20091;-60
2022/12/15 14:06:55;;;;;;;81.72;55.63;;;21.40;28.80;;;;;;5032064;28;20021;-61
2022/12/15 14:09:35;;;;;;;78.55;55.25;;;21.50;28.90;;;;;;5032745;28;20025;-58
2022/12/15 14:12:04;;;;;;;76.57;55.92;;;21.50;28.80;;;;;;5031550;28;20083;-63
2022/12/15 14:14:36;;;;;;;82.70;56.15;;;21.50;28.90;;;;;;5032385;28;20417;-58
2022/12/15 14:17:08;;;;;;;78.22;54.28;;;21.60;29.10;;;;;;5033826;28;20404;-57
2022/12/15 14:19:42;;;;;;;77.05;54.15;;;21.60;29.10;;;;;;5032676;28;20061;-64
2022/12/15 14:22:28;;;;;;;76.70;52.70;;;21.70;29.00;;;;;;5034397;28;20064;-65
2022/12/15 14:25:01;;;;;;;79.55;57.00;;;21.70;29.10;;;;;;5035235;28;20097;-61
2022/12/15 14:27:29;;;;;;;90.43;58.22;;;21.80;29.30;;;;;;5031844;28;20087;-65
2022/12/15 14:30:22;;;;;;;89.07;61.95;;;21.80;29.40;;;;;;5049951;28;20439;-60
2022/12/15 14:32:57;;;;;;;85.65;60.65;;;21.80;29.40;;;;;;5030585;28;20100;-60
2022/12/15 14:35:30;;;;;;;93.72;63.50;;;21.90;29.40;;;;;;5032869;28;20357;-60
2022/12/15 14:37:58;;;;;;;90.40;61.75;;;21.90;29.30;;;;;;5033463;28;20430;-61
2022/12/15 14:40:27;;;;;;;88.35;62.65;;;21.90;29.30;;;;;;5033061;28;20026;-54
2022/12/15 14:42:54;;;;;;;91.60;62.78;;;21.90;29.20;;;;;;5032955;28;20030;-63
2022/12/15 14:45:26;;;;;;;90.88;61.80;;;22.00;29.20;;;;;;5012205;28;20322;-62
2022/12/15 14:48:01;;;;;;;91.53;63.20;;;22.00;29.20;;;;;;5025024;28;20026;-59
2022/12/15 14:50:27;;;;;;;100.88;68.82;;;22.00;29.20;;;;;;5029665;28;20037;-62
2022/12/15 14:53:04;;;;;;;95.75;70.75;;;22.00;29.20;;;;;;5027226;28;20417;-58
2022/12/15 14:55:38;;;;;;;107.00;74.10;;;22.00;29.30;;;;;;5031773;28;20364;-60
2022/12/15 14:58:40;;;;;;;115.22;78.72;;;22.00;29.30;;;;;;5026699;28;20120;-60
2022/12/15 15:01:40;;;;;;;114.90;81.22;;;22.10;29.40;;;;;;5033419;28;20032;-61
2022/12/15 15:04:30;;;;;;;119.05;84.47;;;22.00;29.50;;;;;;5029805;28;20453;-61
2022/12/15 15:06:59;;;;;;;121.38;87.30;;;22.10;29.60;;;;;;5028900;28;20044;-60
2022/12/15 15:09:28;;;;;;;127.50;91.47;;;22.10;29.70;;;;;;5026029;28;20029;-59
2022/12/15 15:12:12;;;;;;;133.98;94.88;;;22.10;29.70;;;;;;5034234;28;20121;-60
2022/12/15 15:14:52;;;;;;;141.20;99.13;;;22.10;29.80;;;;;;5037282;28;20165;-62
2022/12/15 15:17:31;;;;;;;136.27;99.25;;;22.10;29.90;;;;;;5053670;28;20029;-60
2022/12/15 15:20:28;;;;;;;133.18;95.30;;;22.10;30.00;;;;;;5050107;28;20083;-63
2022/12/15 15:23:07;;;;;;;122.95;89.50;;;22.10;30.00;;;;;;5036337;28;20040;-64
2022/12/15 15:25:49;;;;;;;113.78;82.57;;;22.10;29.60;;;;;;5034994;28;20037;-62
2022/12/15 15:28:18;;;;;;;113.82;79.50;;;22.10;29.40;;;;;;5029136;28;20025;-62
2022/12/15 15:30:48;;;;;;;107.00;76.75;;;22.10;29.20;;;;;;5032498;28;20158;-60
2022/12/15 15:33:15;;;;;;;98.78;71.43;;;22.10;29.00;;;;;;5041809;28;20330;-64
2022/12/15 15:35:43;;;;;;;93.50;68.85;;;22.00;28.80;;;;;;5047175;28;20033;-61
2022/12/15 15:38:42;;;;;;;90.10;64.35;;;22.00;28.70;;;;;;5013917;28;20032;-64